sensor_id;sensor_type;location;lat;lon;timestamp;P1;durP1;ratioP1;P2;durP2;ratioP2
4074;SDS011;2052;53.522;9.806;2023-05-16T00:00:42;9.80;;;3.80;;
4074;SDS011;2052;53.522;9.806;2023-05-16T00:03:10;4.67;;;2.80;;
4074;SDS011;2052;53.522;9.806;2023-05-16T00:05:37;8.30;;;3.40;;
4074;SDS011;2052;53.522;9.806;2023-05-16T00:08:04;7.60;;;3.60;;
4074;SDS011;2052;53.522;9.806;2023-05-16T00:10:30;4.83;;;3.57;;
4074;SDS011;2052;53.522;9.806;2023-05-16T00:12:57;5.10;;;4.10;;
4074;SDS011;2052;53.522;9.806;2023-05-16T00:15:25;6.50;;;4.30;;
4074;SDS011;2052;53.522;9.806;2023-05-16T00:17:53;8.50;;;5.17;;
4074;SDS011;2052;53.522;9.806;2023-05-16T00:20:23;6.80;;;4.20;;
4074;SDS011;2052;53.522;9.806;2023-05-16T00:22:51;13.80;;;4.20;;
4074;SDS011;2052;53.522;9.806;2023-05-16T00:25:19;11.43;;;4.87;;
4074;SDS011;2052;53.522;9.806;2023-05-16T00:27:46;6.63;;;3.93;;
4074;SDS011;2052;53.522;9.806;2023-05-16T00:30:13;6.00;;;4.47;;
4074;SDS011;2052;53.522;9.806;2023-05-16T00:32:39;7.87;;;3.77;;
4074;SDS011;2052;53.522;9.806;2023-05-16T00:35:06;10.80;;;3.90;;
4074;SDS011;2052;53.522;9.806;2023-05-16T00:37:36;8.77;;;3.57;;
4074;SDS011;2052;53.522;9.806;2023-05-16T00:40:03;5.03;;;3.90;;
4074;SDS011;2052;53.522;9.806;2023-05-16T00:42:30;6.20;;;3.90;;
4074;SDS011;2052;53.522;9.806;2023-05-16T00:44:57;8.17;;;4.20;;
4074;SDS011;2052;53.522;9.806;2023-05-16T00:47:23;9.80;;;4.00;;
4074;SDS011;2052;53.522;9.806;2023-05-16T00:49:50;7.13;;;4.17;;
4074;SDS011;2052;53.522;9.806;2023-05-16T00:52:17;7.53;;;3.23;;
4074;SDS011;2052;53.522;9.806;2023-05-16T00:54:45;8.20;;;3.90;;
4074;SDS011;2052;53.522;9.806;2023-05-16T00:57:11;5.93;;;3.07;;
4074;SDS011;2052;53.522;9.806;2023-05-16T00:59:38;4.83;;;3.00;;
4074;SDS011;2052;53.522;9.806;2023-05-16T01:02:06;8.40;;;3.03;;
4074;SDS011;2052;53.522;9.806;2023-05-16T01:04:33;5.80;;;3.10;;
4074;SDS011;2052;53.522;9.806;2023-05-16T01:07:02;5.43;;;3.57;;
4074;SDS011;2052;53.522;9.806;2023-05-16T01:09:29;5.80;;;3.80;;
4074;SDS011;2052;53.522;9.806;2023-05-16T01:12:00;10.23;;;3.80;;
4074;SDS011;2052;53.522;9.806;2023-05-16T01:14:32;8.83;;;3.87;;
4074;SDS011;2052;53.522;9.806;2023-05-16T01:17:04;11.77;;;3.90;;
4074;SDS011;2052;53.522;9.806;2023-05-16T01:19:39;9.70;;;4.70;;
4074;SDS011;2052;53.522;9.806;2023-05-16T01:22:27;6.00;;;4.20;;
4074;SDS011;2052;53.522;9.806;2023-05-16T01:25:00;9.23;;;3.83;;
4074;SDS011;2052;53.522;9.806;2023-05-16T01:27:32;6.73;;;3.00;;
4074;SDS011;2052;53.522;9.806;2023-05-16T01:29:58;8.33;;;3.23;;
4074;SDS011;2052;53.522;9.806;2023-05-16T01:32:27;12.27;;;4.03;;
4074;SDS011;2052;53.522;9.806;2023-05-16T01:34:53;7.80;;;4.17;;
4074;SDS011;2052;53.522;9.806;2023-05-16T01:37:23;10.63;;;4.10;;
4074;SDS011;2052;53.522;9.806;2023-05-16T01:39:55;10.03;;;4.00;;
4074;SDS011;2052;53.522;9.806;2023-05-16T01:42:26;8.30;;;4.63;;
4074;SDS011;2052;53.522;9.806;2023-05-16T01:44:57;11.53;;;4.73;;
4074;SDS011;2052;53.522;9.806;2023-05-16T01:47:26;12.13;;;4.23;;
4074;SDS011;2052;53.522;9.806;2023-05-16T01:49:54;8.43;;;3.30;;
4074;SDS011;2052;53.522;9.806;2023-05-16T01:52:24;10.73;;;3.50;;
4074;SDS011;2052;53.522;9.806;2023-05-16T01:54:53;17.37;;;4.80;;
4074;SDS011;2052;53.522;9.806;2023-05-16T01:57:23;11.47;;;4.13;;
4074;SDS011;2052;53.522;9.806;2023-05-16T01:59:51;11.03;;;4.13;;
4074;SDS011;2052;53.522;9.806;2023-05-16T02:02:21;9.20;;;4.40;;
4074;SDS011;2052;53.522;9.806;2023-05-16T02:04:49;12.00;;;4.60;;
4074;SDS011;2052;53.522;9.806;2023-05-16T02:07:15;7.67;;;3.20;;
4074;SDS011;2052;53.522;9.806;2023-05-16T02:09:42;15.53;;;3.70;;
4074;SDS011;2052;53.522;9.806;2023-05-16T02:12:09;9.03;;;3.57;;
4074;SDS011;2052;53.522;9.806;2023-05-16T02:14:35;14.10;;;3.77;;
4074;SDS011;2052;53.522;9.806;2023-05-16T02:17:02;8.40;;;3.40;;
4074;SDS011;2052;53.522;9.806;2023-05-16T02:19:29;7.53;;;3.03;;
4074;SDS011;2052;53.522;9.806;2023-05-16T02:21:56;7.97;;;3.90;;
4074;SDS011;2052;53.522;9.806;2023-05-16T02:24:23;7.17;;;3.67;;
4074;SDS011;2052;53.522;9.806;2023-05-16T02:26:50;17.63;;;4.40;;
4074;SDS011;2052;53.522;9.806;2023-05-16T02:29:17;7.07;;;3.43;;
4074;SDS011;2052;53.522;9.806;2023-05-16T02:31:43;9.20;;;3.40;;
4074;SDS011;2052;53.522;9.806;2023-05-16T02:34:10;10.23;;;3.90;;
4074;SDS011;2052;53.522;9.806;2023-05-16T02:36:38;6.33;;;3.10;;
4074;SDS011;2052;53.522;9.806;2023-05-16T02:39:04;8.13;;;3.20;;
4074;SDS011;2052;53.522;9.806;2023-05-16T02:41:35;17.60;;;3.77;;
4074;SDS011;2052;53.522;9.806;2023-05-16T02:44:02;10.73;;;3.70;;
4074;SDS011;2052;53.522;9.806;2023-05-16T02:46:33;17.80;;;3.40;;
4074;SDS011;2052;53.522;9.806;2023-05-16T02:49:00;18.70;;;4.60;;
4074;SDS011;2052;53.522;9.806;2023-05-16T02:51:27;6.97;;;3.40;;
4074;SDS011;2052;53.522;9.806;2023-05-16T02:53:55;12.07;;;3.60;;
4074;SDS011;2052;53.522;9.806;2023-05-16T02:56:23;11.07;;;3.77;;
4074;SDS011;2052;53.522;9.806;2023-05-16T02:58:50;8.93;;;3.50;;
4074;SDS011;2052;53.522;9.806;2023-05-16T03:01:18;7.27;;;2.60;;
4074;SDS011;2052;53.522;9.806;2023-05-16T03:03:45;8.27;;;2.77;;
4074;SDS011;2052;53.522;9.806;2023-05-16T03:06:11;13.50;;;2.90;;
4074;SDS011;2052;53.522;9.806;2023-05-16T03:08:38;9.80;;;3.53;;
4074;SDS011;2052;53.522;9.806;2023-05-16T03:11:06;19.87;;;3.60;;
4074;SDS011;2052;53.522;9.806;2023-05-16T03:13:32;10.50;;;3.20;;
4074;SDS011;2052;53.522;9.806;2023-05-16T03:15:59;9.60;;;3.67;;
4074;SDS011;2052;53.522;9.806;2023-05-16T03:18:26;12.73;;;3.63;;
4074;SDS011;2052;53.522;9.806;2023-05-16T03:20:52;14.80;;;4.03;;
4074;SDS011;2052;53.522;9.806;2023-05-16T03:23:19;7.50;;;2.70;;
4074;SDS011;2052;53.522;9.806;2023-05-16T03:25:45;11.90;;;3.83;;
4074;SDS011;2052;53.522;9.806;2023-05-16T03:28:15;16.60;;;3.53;;
4074;SDS011;2052;53.522;9.806;2023-05-16T03:30:42;9.23;;;3.43;;
4074;SDS011;2052;53.522;9.806;2023-05-16T03:33:08;8.63;;;2.93;;
4074;SDS011;2052;53.522;9.806;2023-05-16T03:35:35;19.27;;;4.10;;
4074;SDS011;2052;53.522;9.806;2023-05-16T03:38:01;11.10;;;3.40;;
4074;SDS011;2052;53.522;9.806;2023-05-16T03:40:28;16.37;;;3.50;;
4074;SDS011;2052;53.522;9.806;2023-05-16T03:42:55;14.67;;;2.97;;
4074;SDS011;2052;53.522;9.806;2023-05-16T03:45:23;9.27;;;3.40;;
4074;SDS011;2052;53.522;9.806;2023-05-16T03:47:49;9.00;;;4.00;;
4074;SDS011;2052;53.522;9.806;2023-05-16T03:50:16;14.80;;;3.40;;
4074;SDS011;2052;53.522;9.806;2023-05-16T03:52:43;17.33;;;3.30;;
4074;SDS011;2052;53.522;9.806;2023-05-16T03:55:09;11.00;;;3.10;;
4074;SDS011;2052;53.522;9.806;2023-05-16T03:57:38;9.80;;;3.10;;
4074;SDS011;2052;53.522;9.806;2023-05-16T04:00:06;10.43;;;2.60;;
4074;SDS011;2052;53.522;9.806;2023-05-16T04:02:36;17.80;;;3.83;;
4074;SDS011;2052;53.522;9.806;2023-05-16T04:05:04;10.80;;;2.93;;
4074;SDS011;2052;53.522;9.806;2023-05-16T04:07:32;14.97;;;3.93;;
4074;SDS011;2052;53.522;9.806;2023-05-16T04:09:59;11.90;;;3.30;;
4074;SDS011;2052;53.522;9.806;2023-05-16T04:12:25;20.30;;;4.20;;
4074;SDS011;2052;53.522;9.806;2023-05-16T04:14:52;13.90;;;3.13;;
4074;SDS011;2052;53.522;9.806;2023-05-16T04:17:19;13.00;;;3.00;;
4074;SDS011;2052;53.522;9.806;2023-05-16T04:19:46;13.60;;;3.57;;
4074;SDS011;2052;53.522;9.806;2023-05-16T04:22:13;18.40;;;2.87;;
4074;SDS011;2052;53.522;9.806;2023-05-16T04:24:40;13.50;;;3.10;;
4074;SDS011;2052;53.522;9.806;2023-05-16T04:27:06;6.93;;;3.57;;
4074;SDS011;2052;53.522;9.806;2023-05-16T04:29:33;11.23;;;3.30;;
4074;SDS011;2052;53.522;9.806;2023-05-16T04:32:00;13.87;;;4.00;;
4074;SDS011;2052;53.522;9.806;2023-05-16T04:34:27;12.60;;;3.27;;
4074;SDS011;2052;53.522;9.806;2023-05-16T04:36:56;11.70;;;3.10;;
4074;SDS011;2052;53.522;9.806;2023-05-16T04:39:23;11.33;;;2.93;;
4074;SDS011;2052;53.522;9.806;2023-05-16T04:41:49;10.67;;;2.53;;
4074;SDS011;2052;53.522;9.806;2023-05-16T04:44:16;6.67;;;3.63;;
4074;SDS011;2052;53.522;9.806;2023-05-16T04:46:43;14.13;;;2.70;;
4074;SDS011;2052;53.522;9.806;2023-05-16T04:49:11;15.03;;;4.50;;
4074;SDS011;2052;53.522;9.806;2023-05-16T04:51:38;9.73;;;2.17;;
4074;SDS011;2052;53.522;9.806;2023-05-16T04:54:06;7.57;;;3.50;;
4074;SDS011;2052;53.522;9.806;2023-05-16T04:56:34;7.67;;;2.40;;
4074;SDS011;2052;53.522;9.806;2023-05-16T04:59:01;12.90;;;2.73;;
4074;SDS011;2052;53.522;9.806;2023-05-16T05:01:28;10.73;;;2.40;;
4074;SDS011;2052;53.522;9.806;2023-05-16T05:03:54;15.33;;;2.87;;
4074;SDS011;2052;53.522;9.806;2023-05-16T05:06:21;13.57;;;2.43;;
4074;SDS011;2052;53.522;9.806;2023-05-16T05:08:47;6.43;;;2.80;;
4074;SDS011;2052;53.522;9.806;2023-05-16T05:11:15;13.20;;;2.77;;
4074;SDS011;2052;53.522;9.806;2023-05-16T05:13:43;14.97;;;2.60;;
4074;SDS011;2052;53.522;9.806;2023-05-16T05:16:09;5.40;;;2.90;;
4074;SDS011;2052;53.522;9.806;2023-05-16T05:18:40;4.90;;;2.00;;
4074;SDS011;2052;53.522;9.806;2023-05-16T05:21:06;11.80;;;3.43;;
4074;SDS011;2052;53.522;9.806;2023-05-16T05:23:33;9.57;;;2.73;;
4074;SDS011;2052;53.522;9.806;2023-05-16T05:25:59;7.63;;;2.93;;
4074;SDS011;2052;53.522;9.806;2023-05-16T05:28:27;8.33;;;2.67;;
4074;SDS011;2052;53.522;9.806;2023-05-16T05:30:54;9.50;;;2.30;;
4074;SDS011;2052;53.522;9.806;2023-05-16T05:33:24;12.00;;;2.00;;
4074;SDS011;2052;53.522;9.806;2023-05-16T05:35:51;7.87;;;2.23;;
4074;SDS011;2052;53.522;9.806;2023-05-16T05:38:20;9.93;;;2.40;;
4074;SDS011;2052;53.522;9.806;2023-05-16T05:40:46;6.30;;;2.30;;
4074;SDS011;2052;53.522;9.806;2023-05-16T05:43:13;3.43;;;1.73;;
4074;SDS011;2052;53.522;9.806;2023-05-16T05:45:41;6.10;;;1.80;;
4074;SDS011;2052;53.522;9.806;2023-05-16T05:48:08;6.40;;;2.20;;
4074;SDS011;2052;53.522;9.806;2023-05-16T05:50:35;8.10;;;1.73;;
4074;SDS011;2052;53.522;9.806;2023-05-16T05:53:02;6.57;;;1.83;;
4074;SDS011;2052;53.522;9.806;2023-05-16T05:55:28;6.73;;;1.70;;
4074;SDS011;2052;53.522;9.806;2023-05-16T05:57:57;10.40;;;2.80;;
4074;SDS011;2052;53.522;9.806;2023-05-16T06:00:24;10.63;;;2.70;;
4074;SDS011;2052;53.522;9.806;2023-05-16T06:02:52;6.13;;;2.20;;
4074;SDS011;2052;53.522;9.806;2023-05-16T06:05:18;7.43;;;2.63;;
4074;SDS011;2052;53.522;9.806;2023-05-16T06:07:45;12.50;;;3.33;;
4074;SDS011;2052;53.522;9.806;2023-05-16T06:10:11;8.93;;;2.43;;
4074;SDS011;2052;53.522;9.806;2023-05-16T06:12:39;11.00;;;2.53;;
4074;SDS011;2052;53.522;9.806;2023-05-16T06:15:06;13.70;;;3.20;;
4074;SDS011;2052;53.522;9.806;2023-05-16T06:17:34;18.53;;;3.10;;
4074;SDS011;2052;53.522;9.806;2023-05-16T06:20:02;7.70;;;2.30;;
4074;SDS011;2052;53.522;9.806;2023-05-16T06:22:29;10.70;;;2.73;;
4074;SDS011;2052;53.522;9.806;2023-05-16T06:24:55;6.80;;;2.00;;
4074;SDS011;2052;53.522;9.806;2023-05-16T06:27:22;14.77;;;2.50;;
4074;SDS011;2052;53.522;9.806;2023-05-16T06:29:48;10.40;;;2.03;;
4074;SDS011;2052;53.522;9.806;2023-05-16T06:32:15;6.70;;;2.30;;
4074;SDS011;2052;53.522;9.806;2023-05-16T06:34:42;9.37;;;1.60;;
4074;SDS011;2052;53.522;9.806;2023-05-16T06:37:10;9.53;;;2.20;;
4074;SDS011;2052;53.522;9.806;2023-05-16T06:39:36;6.57;;;1.80;;
4074;SDS011;2052;53.522;9.806;2023-05-16T06:42:03;7.30;;;2.40;;
4074;SDS011;2052;53.522;9.806;2023-05-16T06:44:30;8.50;;;1.87;;
4074;SDS011;2052;53.522;9.806;2023-05-16T06:46:56;10.00;;;2.10;;
4074;SDS011;2052;53.522;9.806;2023-05-16T06:49:23;7.50;;;1.97;;
4074;SDS011;2052;53.522;9.806;2023-05-16T06:51:49;11.50;;;3.87;;
4074;SDS011;2052;53.522;9.806;2023-05-16T06:54:17;7.03;;;1.63;;
4074;SDS011;2052;53.522;9.806;2023-05-16T06:56:44;16.80;;;2.20;;
4074;SDS011;2052;53.522;9.806;2023-05-16T06:59:11;12.47;;;1.63;;
4074;SDS011;2052;53.522;9.806;2023-05-16T07:01:37;11.30;;;2.07;;
4074;SDS011;2052;53.522;9.806;2023-05-16T07:04:05;6.13;;;2.03;;
4074;SDS011;2052;53.522;9.806;2023-05-16T07:06:31;6.43;;;1.50;;
4074;SDS011;2052;53.522;9.806;2023-05-16T07:08:58;8.13;;;1.90;;
4074;SDS011;2052;53.522;9.806;2023-05-16T07:11:27;7.07;;;1.90;;
4074;SDS011;2052;53.522;9.806;2023-05-16T07:13:54;6.90;;;2.80;;
4074;SDS011;2052;53.522;9.806;2023-05-16T07:16:21;7.07;;;2.13;;
4074;SDS011;2052;53.522;9.806;2023-05-16T07:18:48;7.00;;;1.50;;
4074;SDS011;2052;53.522;9.806;2023-05-16T07:21:15;5.93;;;1.60;;
4074;SDS011;2052;53.522;9.806;2023-05-16T07:23:42;7.47;;;1.77;;
4074;SDS011;2052;53.522;9.806;2023-05-16T07:26:08;6.70;;;1.70;;
4074;SDS011;2052;53.522;9.806;2023-05-16T07:28:36;6.87;;;1.77;;
4074;SDS011;2052;53.522;9.806;2023-05-16T07:31:03;11.60;;;2.23;;
4074;SDS011;2052;53.522;9.806;2023-05-16T07:33:30;7.47;;;1.40;;
4074;SDS011;2052;53.522;9.806;2023-05-16T07:35:58;7.73;;;1.93;;
4074;SDS011;2052;53.522;9.806;2023-05-16T07:38:25;9.10;;;1.90;;
4074;SDS011;2052;53.522;9.806;2023-05-16T07:40:52;7.27;;;2.40;;
4074;SDS011;2052;53.522;9.806;2023-05-16T07:43:19;13.20;;;2.50;;
4074;SDS011;2052;53.522;9.806;2023-05-16T07:45:47;4.20;;;1.67;;
4074;SDS011;2052;53.522;9.806;2023-05-16T07:48:13;6.60;;;1.83;;
4074;SDS011;2052;53.522;9.806;2023-05-16T07:50:41;7.20;;;1.73;;
4074;SDS011;2052;53.522;9.806;2023-05-16T07:53:08;7.97;;;1.93;;
4074;SDS011;2052;53.522;9.806;2023-05-16T07:55:35;7.63;;;1.33;;
4074;SDS011;2052;53.522;9.806;2023-05-16T07:58:02;6.77;;;1.67;;
4074;SDS011;2052;53.522;9.806;2023-05-16T08:00:29;3.93;;;1.30;;
4074;SDS011;2052;53.522;9.806;2023-05-16T08:02:57;3.97;;;1.53;;
4074;SDS011;2052;53.522;9.806;2023-05-16T08:05:26;4.73;;;1.33;;
4074;SDS011;2052;53.522;9.806;2023-05-16T08:07:52;7.50;;;1.90;;
4074;SDS011;2052;53.522;9.806;2023-05-16T08:10:19;8.80;;;1.60;;
4074;SDS011;2052;53.522;9.806;2023-05-16T08:12:49;8.13;;;2.20;;
4074;SDS011;2052;53.522;9.806;2023-05-16T08:15:17;8.23;;;2.40;;
4074;SDS011;2052;53.522;9.806;2023-05-16T08:17:43;7.63;;;1.80;;
4074;SDS011;2052;53.522;9.806;2023-05-16T08:20:12;4.27;;;1.47;;
4074;SDS011;2052;53.522;9.806;2023-05-16T08:22:38;2.63;;;1.33;;
4074;SDS011;2052;53.522;9.806;2023-05-16T08:25:05;9.83;;;2.47;;
4074;SDS011;2052;53.522;9.806;2023-05-16T08:27:33;6.30;;;1.60;;
4074;SDS011;2052;53.522;9.806;2023-05-16T08:30:01;9.43;;;1.70;;
4074;SDS011;2052;53.522;9.806;2023-05-16T08:32:28;8.93;;;1.97;;
4074;SDS011;2052;53.522;9.806;2023-05-16T08:34:55;8.63;;;2.13;;
4074;SDS011;2052;53.522;9.806;2023-05-16T08:37:23;12.70;;;2.83;;
4074;SDS011;2052;53.522;9.806;2023-05-16T08:39:49;4.20;;;1.60;;
4074;SDS011;2052;53.522;9.806;2023-05-16T08:42:16;4.60;;;1.50;;
4074;SDS011;2052;53.522;9.806;2023-05-16T08:44:43;4.93;;;1.70;;
4074;SDS011;2052;53.522;9.806;2023-05-16T08:47:10;6.90;;;1.63;;
4074;SDS011;2052;53.522;9.806;2023-05-16T08:49:47;7.97;;;1.53;;
4074;SDS011;2052;53.522;9.806;2023-05-16T08:52:19;5.90;;;1.97;;
4074;SDS011;2052;53.522;9.806;2023-05-16T08:54:48;7.93;;;2.07;;
4074;SDS011;2052;53.522;9.806;2023-05-16T08:57:15;3.13;;;1.23;;
4074;SDS011;2052;53.522;9.806;2023-05-16T08:59:42;4.37;;;1.40;;
4074;SDS011;2052;53.522;9.806;2023-05-16T09:02:12;4.80;;;1.23;;
4074;SDS011;2052;53.522;9.806;2023-05-16T09:04:39;4.13;;;1.90;;
4074;SDS011;2052;53.522;9.806;2023-05-16T09:07:06;3.00;;;1.97;;
4074;SDS011;2052;53.522;9.806;2023-05-16T09:09:32;13.47;;;1.83;;
4074;SDS011;2052;53.522;9.806;2023-05-16T09:12:01;7.63;;;1.60;;
4074;SDS011;2052;53.522;9.806;2023-05-16T09:14:27;8.00;;;1.50;;
4074;SDS011;2052;53.522;9.806;2023-05-16T09:17:01;4.23;;;1.90;;
4074;SDS011;2052;53.522;9.806;2023-05-16T09:19:31;6.63;;;1.43;;
4074;SDS011;2052;53.522;9.806;2023-05-16T09:22:02;5.40;;;2.00;;
4074;SDS011;2052;53.522;9.806;2023-05-16T09:24:28;11.53;;;2.17;;
4074;SDS011;2052;53.522;9.806;2023-05-16T09:26:55;5.47;;;1.93;;
4074;SDS011;2052;53.522;9.806;2023-05-16T09:29:24;6.50;;;1.77;;
4074;SDS011;2052;53.522;9.806;2023-05-16T09:31:51;6.20;;;1.73;;
4074;SDS011;2052;53.522;9.806;2023-05-16T09:34:19;7.37;;;2.00;;
4074;SDS011;2052;53.522;9.806;2023-05-16T09:36:53;7.40;;;1.90;;
4074;SDS011;2052;53.522;9.806;2023-05-16T09:39:21;6.07;;;1.57;;
4074;SDS011;2052;53.522;9.806;2023-05-16T09:41:50;3.87;;;1.30;;
4074;SDS011;2052;53.522;9.806;2023-05-16T09:44:17;3.93;;;1.47;;
4074;SDS011;2052;53.522;9.806;2023-05-16T09:46:47;4.67;;;1.40;;
4074;SDS011;2052;53.522;9.806;2023-05-16T09:49:13;3.90;;;1.40;;
4074;SDS011;2052;53.522;9.806;2023-05-16T09:51:40;7.97;;;1.40;;
4074;SDS011;2052;53.522;9.806;2023-05-16T09:54:06;3.40;;;1.27;;
4074;SDS011;2052;53.522;9.806;2023-05-16T09:56:33;8.03;;;2.50;;
4074;SDS011;2052;53.522;9.806;2023-05-16T09:59:14;14.67;;;1.90;;
4074;SDS011;2052;53.522;9.806;2023-05-16T10:01:40;4.97;;;1.37;;
4074;SDS011;2052;53.522;9.806;2023-05-16T10:04:08;5.40;;;1.40;;
4074;SDS011;2052;53.522;9.806;2023-05-16T10:06:38;3.93;;;1.27;;
4074;SDS011;2052;53.522;9.806;2023-05-16T10:09:06;3.80;;;1.10;;
4074;SDS011;2052;53.522;9.806;2023-05-16T10:11:36;8.00;;;1.63;;
4074;SDS011;2052;53.522;9.806;2023-05-16T10:14:03;6.40;;;1.83;;
4074;SDS011;2052;53.522;9.806;2023-05-16T10:16:30;14.70;;;2.40;;
4074;SDS011;2052;53.522;9.806;2023-05-16T10:18:58;9.80;;;2.20;;
4074;SDS011;2052;53.522;9.806;2023-05-16T10:21:27;5.00;;;1.50;;
4074;SDS011;2052;53.522;9.806;2023-05-16T10:23:55;8.67;;;1.73;;
4074;SDS011;2052;53.522;9.806;2023-05-16T10:26:24;6.33;;;1.90;;
4074;SDS011;2052;53.522;9.806;2023-05-16T10:28:51;6.50;;;1.60;;
4074;SDS011;2052;53.522;9.806;2023-05-16T10:31:18;6.57;;;2.20;;
4074;SDS011;2052;53.522;9.806;2023-05-16T10:33:46;4.53;;;2.93;;
4074;SDS011;2052;53.522;9.806;2023-05-16T10:36:13;2.70;;;1.60;;
4074;SDS011;2052;53.522;9.806;2023-05-16T10:38:42;8.40;;;2.20;;
4074;SDS011;2052;53.522;9.806;2023-05-16T10:41:10;4.90;;;1.90;;
4074;SDS011;2052;53.522;9.806;2023-05-16T10:43:37;6.80;;;1.77;;
4074;SDS011;2052;53.522;9.806;2023-05-16T10:46:05;4.37;;;1.80;;
4074;SDS011;2052;53.522;9.806;2023-05-16T10:48:34;14.50;;;2.67;;
4074;SDS011;2052;53.522;9.806;2023-05-16T10:51:03;4.37;;;1.87;;
4074;SDS011;2052;53.522;9.806;2023-05-16T10:53:52;10.30;;;2.30;;
4074;SDS011;2052;53.522;9.806;2023-05-16T10:56:21;6.47;;;1.90;;
4074;SDS011;2052;53.522;9.806;2023-05-16T10:58:48;6.73;;;2.17;;
4074;SDS011;2052;53.522;9.806;2023-05-16T11:01:22;6.77;;;2.10;;
4074;SDS011;2052;53.522;9.806;2023-05-16T11:04:08;6.43;;;2.10;;
4074;SDS011;2052;53.522;9.806;2023-05-16T11:06:45;4.80;;;2.07;;
4074;SDS011;2052;53.522;9.806;2023-05-16T11:09:21;8.30;;;2.07;;
4074;SDS011;2052;53.522;9.806;2023-05-16T11:11:54;8.07;;;2.20;;
4074;SDS011;2052;53.522;9.806;2023-05-16T11:14:23;7.43;;;1.50;;
4074;SDS011;2052;53.522;9.806;2023-05-16T11:16:51;6.23;;;2.40;;
4074;SDS011;2052;53.522;9.806;2023-05-16T11:19:28;2.80;;;1.47;;
4074;SDS011;2052;53.522;9.806;2023-05-16T11:22:10;2.37;;;1.47;;
4074;SDS011;2052;53.522;9.806;2023-05-16T11:24:49;11.43;;;2.00;;
4074;SDS011;2052;53.522;9.806;2023-05-16T11:27:26;7.13;;;1.80;;
4074;SDS011;2052;53.522;9.806;2023-05-16T11:29:54;5.00;;;2.60;;
4074;SDS011;2052;53.522;9.806;2023-05-16T11:32:23;4.93;;;1.40;;
4074;SDS011;2052;53.522;9.806;2023-05-16T11:34:55;7.27;;;2.00;;
4074;SDS011;2052;53.522;9.806;2023-05-16T11:37:23;3.90;;;1.30;;
4074;SDS011;2052;53.522;9.806;2023-05-16T11:39:51;5.20;;;1.30;;
4074;SDS011;2052;53.522;9.806;2023-05-16T11:42:18;6.20;;;1.27;;
4074;SDS011;2052;53.522;9.806;2023-05-16T11:44:45;2.00;;;1.40;;
4074;SDS011;2052;53.522;9.806;2023-05-16T11:47:12;5.43;;;1.87;;
4074;SDS011;2052;53.522;9.806;2023-05-16T11:49:39;4.73;;;1.33;;
4074;SDS011;2052;53.522;9.806;2023-05-16T11:52:06;6.53;;;2.03;;
4074;SDS011;2052;53.522;9.806;2023-05-16T11:54:33;2.13;;;1.40;;
4074;SDS011;2052;53.522;9.806;2023-05-16T11:57:01;5.70;;;1.93;;
4074;SDS011;2052;53.522;9.806;2023-05-16T11:59:28;4.50;;;1.97;;
4074;SDS011;2052;53.522;9.806;2023-05-16T12:01:55;6.10;;;1.60;;
4074;SDS011;2052;53.522;9.806;2023-05-16T12:04:22;3.43;;;1.80;;
4074;SDS011;2052;53.522;9.806;2023-05-16T12:06:57;3.53;;;1.60;;
4074;SDS011;2052;53.522;9.806;2023-05-16T12:09:25;5.90;;;1.80;;
4074;SDS011;2052;53.522;9.806;2023-05-16T12:11:52;5.67;;;1.47;;
4074;SDS011;2052;53.522;9.806;2023-05-16T12:14:20;4.83;;;1.47;;
4074;SDS011;2052;53.522;9.806;2023-05-16T12:16:47;7.00;;;2.13;;
4074;SDS011;2052;53.522;9.806;2023-05-16T12:19:14;10.13;;;2.07;;
4074;SDS011;2052;53.522;9.806;2023-05-16T12:21:41;4.50;;;1.50;;
4074;SDS011;2052;53.522;9.806;2023-05-16T12:24:08;7.00;;;1.83;;
4074;SDS011;2052;53.522;9.806;2023-05-16T12:26:37;4.80;;;1.67;;
4074;SDS011;2052;53.522;9.806;2023-05-16T12:29:05;5.10;;;1.77;;
4074;SDS011;2052;53.522;9.806;2023-05-16T12:31:36;5.30;;;1.57;;
4074;SDS011;2052;53.522;9.806;2023-05-16T12:34:04;6.90;;;1.90;;
4074;SDS011;2052;53.522;9.806;2023-05-16T12:36:33;4.60;;;1.80;;
4074;SDS011;2052;53.522;9.806;2023-05-16T12:39:00;5.67;;;2.63;;
4074;SDS011;2052;53.522;9.806;2023-05-16T12:41:28;6.87;;;2.07;;
4074;SDS011;2052;53.522;9.806;2023-05-16T12:44:05;8.87;;;2.30;;
4074;SDS011;2052;53.522;9.806;2023-05-16T12:46:32;8.50;;;2.50;;
4074;SDS011;2052;53.522;9.806;2023-05-16T12:49:01;5.13;;;2.13;;
4074;SDS011;2052;53.522;9.806;2023-05-16T12:51:30;3.70;;;1.40;;
4074;SDS011;2052;53.522;9.806;2023-05-16T12:54:05;9.47;;;2.00;;
4074;SDS011;2052;53.522;9.806;2023-05-16T12:56:33;3.73;;;1.30;;
4074;SDS011;2052;53.522;9.806;2023-05-16T12:59:00;4.33;;;1.87;;
4074;SDS011;2052;53.522;9.806;2023-05-16T13:01:27;14.70;;;2.20;;
4074;SDS011;2052;53.522;9.806;2023-05-16T13:03:54;6.63;;;2.40;;
4074;SDS011;2052;53.522;9.806;2023-05-16T13:06:22;10.93;;;2.33;;
4074;SDS011;2052;53.522;9.806;2023-05-16T13:08:48;4.93;;;1.90;;
4074;SDS011;2052;53.522;9.806;2023-05-16T13:11:17;10.17;;;1.83;;
4074;SDS011;2052;53.522;9.806;2023-05-16T13:13:44;5.10;;;1.30;;
4074;SDS011;2052;53.522;9.806;2023-05-16T13:16:11;8.03;;;1.50;;
4074;SDS011;2052;53.522;9.806;2023-05-16T13:18:37;2.50;;;1.33;;
4074;SDS011;2052;53.522;9.806;2023-05-16T13:21:04;4.83;;;1.70;;
4074;SDS011;2052;53.522;9.806;2023-05-16T13:23:32;10.80;;;2.23;;
4074;SDS011;2052;53.522;9.806;2023-05-16T13:25:59;5.00;;;1.67;;
4074;SDS011;2052;53.522;9.806;2023-05-16T13:28:26;8.43;;;2.20;;
4074;SDS011;2052;53.522;9.806;2023-05-16T13:30:52;5.90;;;1.40;;
4074;SDS011;2052;53.522;9.806;2023-05-16T13:33:19;1.00;;;0.90;;
4074;SDS011;2052;53.522;9.806;2023-05-16T13:35:46;4.10;;;1.30;;
4074;SDS011;2052;53.522;9.806;2023-05-16T13:38:13;3.90;;;1.30;;
4074;SDS011;2052;53.522;9.806;2023-05-16T13:40:41;3.53;;;1.10;;
4074;SDS011;2052;53.522;9.806;2023-05-16T13:43:07;3.90;;;1.20;;
4074;SDS011;2052;53.522;9.806;2023-05-16T13:45:34;3.77;;;1.30;;
4074;SDS011;2052;53.522;9.806;2023-05-16T13:48:01;1.43;;;1.00;;
4074;SDS011;2052;53.522;9.806;2023-05-16T13:50:28;2.90;;;1.60;;
4074;SDS011;2052;53.522;9.806;2023-05-16T13:52:55;5.30;;;1.27;;
4074;SDS011;2052;53.522;9.806;2023-05-16T13:55:21;4.10;;;1.00;;
4074;SDS011;2052;53.522;9.806;2023-05-16T13:57:49;2.00;;;1.00;;
4074;SDS011;2052;53.522;9.806;2023-05-16T14:00:16;2.47;;;1.20;;
4074;SDS011;2052;53.522;9.806;2023-05-16T14:02:45;3.00;;;1.47;;
4074;SDS011;2052;53.522;9.806;2023-05-16T14:05:12;2.33;;;1.10;;
4074;SDS011;2052;53.522;9.806;2023-05-16T14:07:39;4.20;;;1.30;;
4074;SDS011;2052;53.522;9.806;2023-05-16T14:10:06;3.90;;;1.50;;
4074;SDS011;2052;53.522;9.806;2023-05-16T14:12:37;3.17;;;1.70;;
4074;SDS011;2052;53.522;9.806;2023-05-16T14:15:06;1.70;;;0.93;;
4074;SDS011;2052;53.522;9.806;2023-05-16T14:17:33;3.83;;;1.70;;
4074;SDS011;2052;53.522;9.806;2023-05-16T14:20:00;1.77;;;1.30;;
4074;SDS011;2052;53.522;9.806;2023-05-16T14:22:26;3.17;;;1.20;;
4074;SDS011;2052;53.522;9.806;2023-05-16T14:24:53;2.50;;;1.20;;
4074;SDS011;2052;53.522;9.806;2023-05-16T14:27:20;4.83;;;1.80;;
4074;SDS011;2052;53.522;9.806;2023-05-16T14:29:46;3.57;;;1.40;;
4074;SDS011;2052;53.522;9.806;2023-05-16T14:32:18;4.00;;;2.20;;
4074;SDS011;2052;53.522;9.806;2023-05-16T14:34:50;2.50;;;1.57;;
4074;SDS011;2052;53.522;9.806;2023-05-16T14:37:17;4.67;;;1.80;;
4074;SDS011;2052;53.522;9.806;2023-05-16T14:39:45;2.77;;;1.37;;
4074;SDS011;2052;53.522;9.806;2023-05-16T14:42:13;5.60;;;1.50;;
4074;SDS011;2052;53.522;9.806;2023-05-16T14:44:40;6.90;;;1.73;;
4074;SDS011;2052;53.522;9.806;2023-05-16T14:47:08;8.73;;;2.77;;
4074;SDS011;2052;53.522;9.806;2023-05-16T14:49:37;5.40;;;1.77;;
4074;SDS011;2052;53.522;9.806;2023-05-16T14:52:04;4.70;;;1.80;;
4074;SDS011;2052;53.522;9.806;2023-05-16T14:54:32;8.50;;;1.90;;
4074;SDS011;2052;53.522;9.806;2023-05-16T14:56:59;2.97;;;1.50;;
4074;SDS011;2052;53.522;9.806;2023-05-16T14:59:28;6.73;;;1.87;;
4074;SDS011;2052;53.522;9.806;2023-05-16T15:01:55;2.10;;;1.83;;
4074;SDS011;2052;53.522;9.806;2023-05-16T15:04:25;3.20;;;1.77;;
4074;SDS011;2052;53.522;9.806;2023-05-16T15:06:58;6.93;;;1.80;;
4074;SDS011;2052;53.522;9.806;2023-05-16T15:09:26;5.40;;;1.60;;
4074;SDS011;2052;53.522;9.806;2023-05-16T15:11:53;3.73;;;1.53;;
4074;SDS011;2052;53.522;9.806;2023-05-16T15:14:19;5.30;;;2.30;;
4074;SDS011;2052;53.522;9.806;2023-05-16T15:16:47;7.07;;;2.20;;